sensor_id;sensor_type;location;lat;lon;timestamp;P1;durP1;ratioP1;P2;durP2;ratioP2
68140;SDS011;54941;52.220;104.306;2023-12-14T00:01:26;49.08;;;19.38;;
68140;SDS011;54941;52.220;104.306;2023-12-14T00:03:52;50.03;;;18.58;;
68140;SDS011;54941;52.220;104.306;2023-12-14T00:06:19;47.05;;;21.33;;
68140;SDS011;54941;52.220;104.306;2023-12-14T00:08:45;52.10;;;22.35;;
68140;SDS011;54941;52.220;104.306;2023-12-14T00:11:12;50.22;;;21.05;;
68140;SDS011;54941;52.220;104.306;2023-12-14T00:13:38;54.28;;;19.13;;
68140;SDS011;54941;52.220;104.306;2023-12-14T00:16:05;50.72;;;20.48;;
68140;SDS011;54941;52.220;104.306;2023-12-14T00:18:33;45.15;;;18.08;;
68140;SDS011;54941;52.220;104.306;2023-12-14T00:21:00;40.20;;;17.90;;
68140;SDS011;54941;52.220;104.306;2023-12-14T00:23:26;48.80;;;17.90;;
68140;SDS011;54941;52.220;104.306;2023-12-14T00:25:52;40.17;;;15.90;;
68140;SDS011;54941;52.220;104.306;2023-12-14T00:28:19;40.33;;;19.70;;
68140;SDS011;54941;52.220;104.306;2023-12-14T00:30:45;36.35;;;17.15;;
68140;SDS011;54941;52.220;104.306;2023-12-14T00:33:11;44.65;;;20.38;;
68140;SDS011;54941;52.220;104.306;2023-12-14T00:35:39;51.55;;;19.10;;
68140;SDS011;54941;52.220;104.306;2023-12-14T00:38:05;52.85;;;20.63;;
68140;SDS011;54941;52.220;104.306;2023-12-14T00:40:32;44.53;;;18.23;;
68140;SDS011;54941;52.220;104.306;2023-12-14T00:42:58;49.45;;;19.60;;
68140;SDS011;54941;52.220;104.306;2023-12-14T00:45:24;55.83;;;25.00;;
68140;SDS011;54941;52.220;104.306;2023-12-14T00:47:51;47.65;;;18.65;;
68140;SDS011;54941;52.220;104.306;2023-12-14T00:50:17;44.25;;;19.85;;
68140;SDS011;54941;52.220;104.306;2023-12-14T00:52:45;38.88;;;18.10;;
68140;SDS011;54941;52.220;104.306;2023-12-14T00:55:11;46.65;;;18.55;;
68140;SDS011;54941;52.220;104.306;2023-12-14T00:57:37;42.20;;;18.63;;
68140;SDS011;54941;52.220;104.306;2023-12-14T01:00:04;50.53;;;18.30;;
68140;SDS011;54941;52.220;104.306;2023-12-14T01:02:31;54.90;;;22.35;;
68140;SDS011;54941;52.220;104.306;2023-12-14T01:04:58;45.20;;;20.65;;
68140;SDS011;54941;52.220;104.306;2023-12-14T01:07:24;49.05;;;19.00;;
68140;SDS011;54941;52.220;104.306;2023-12-14T01:09:52;45.25;;;18.60;;
68140;SDS011;54941;52.220;104.306;2023-12-14T01:12:18;50.30;;;19.50;;
68140;SDS011;54941;52.220;104.306;2023-12-14T01:14:44;46.47;;;19.00;;
68140;SDS011;54941;52.220;104.306;2023-12-14T01:17:10;44.05;;;18.25;;
68140;SDS011;54941;52.220;104.306;2023-12-14T01:19:39;51.50;;;21.52;;
68140;SDS011;54941;52.220;104.306;2023-12-14T01:22:06;47.22;;;22.30;;
68140;SDS011;54941;52.220;104.306;2023-12-14T01:24:32;42.95;;;20.45;;
68140;SDS011;54941;52.220;104.306;2023-12-14T01:27:00;55.03;;;24.15;;
68140;SDS011;54941;52.220;104.306;2023-12-14T01:29:26;45.70;;;18.15;;
68140;SDS011;54941;52.220;104.306;2023-12-14T01:31:53;53.92;;;21.83;;
68140;SDS011;54941;52.220;104.306;2023-12-14T01:34:19;54.83;;;19.98;;
68140;SDS011;54941;52.220;104.306;2023-12-14T01:36:45;49.08;;;21.08;;
68140;SDS011;54941;52.220;104.306;2023-12-14T01:39:12;54.45;;;22.63;;
68140;SDS011;54941;52.220;104.306;2023-12-14T01:41:38;57.58;;;23.80;;
68140;SDS011;54941;52.220;104.306;2023-12-14T01:44:06;58.45;;;23.08;;
68140;SDS011;54941;52.220;104.306;2023-12-14T01:46:32;66.78;;;26.92;;
68140;SDS011;54941;52.220;104.306;2023-12-14T01:48:58;68.20;;;25.48;;
68140;SDS011;54941;52.220;104.306;2023-12-14T01:51:24;62.33;;;24.73;;
68140;SDS011;54941;52.220;104.306;2023-12-14T01:53:51;56.92;;;19.88;;
68140;SDS011;54941;52.220;104.306;2023-12-14T01:56:17;49.33;;;21.20;;
68140;SDS011;54941;52.220;104.306;2023-12-14T01:58:43;58.97;;;21.90;;
68140;SDS011;54941;52.220;104.306;2023-12-14T02:01:14;51.40;;;21.75;;
68140;SDS011;54941;52.220;104.306;2023-12-14T02:03:45;55.78;;;24.17;;
68140;SDS011;54941;52.220;104.306;2023-12-14T02:06:13;56.35;;;23.92;;
68140;SDS011;54941;52.220;104.306;2023-12-14T02:08:40;46.28;;;21.27;;
68140;SDS011;54941;52.220;104.306;2023-12-14T02:11:06;61.25;;;22.10;;
68140;SDS011;54941;52.220;104.306;2023-12-14T02:13:33;56.95;;;23.85;;
68140;SDS011;54941;52.220;104.306;2023-12-14T02:15:59;60.90;;;24.95;;
68140;SDS011;54941;52.220;104.306;2023-12-14T02:18:27;62.45;;;25.08;;
68140;SDS011;54941;52.220;104.306;2023-12-14T02:21:13;63.50;;;25.85;;
68140;SDS011;54941;52.220;104.306;2023-12-14T02:23:43;66.10;;;27.67;;
68140;SDS011;54941;52.220;104.306;2023-12-14T02:26:10;68.72;;;28.88;;
68140;SDS011;54941;52.220;104.306;2023-12-14T02:28:36;74.43;;;28.98;;
68140;SDS011;54941;52.220;104.306;2023-12-14T02:31:03;67.55;;;29.73;;
68140;SDS011;54941;52.220;104.306;2023-12-14T02:33:29;90.70;;;32.53;;
68140;SDS011;54941;52.220;104.306;2023-12-14T02:35:56;84.85;;;34.83;;
68140;SDS011;54941;52.220;104.306;2023-12-14T02:38:22;86.60;;;37.35;;
68140;SDS011;54941;52.220;104.306;2023-12-14T02:40:51;90.68;;;34.45;;
68140;SDS011;54941;52.220;104.306;2023-12-14T02:43:18;78.82;;;33.58;;
68140;SDS011;54941;52.220;104.306;2023-12-14T02:45:44;66.03;;;31.02;;
68140;SDS011;54941;52.220;104.306;2023-12-14T02:48:10;65.50;;;32.50;;
68140;SDS011;54941;52.220;104.306;2023-12-14T02:50:37;69.90;;;31.50;;
68140;SDS011;54941;52.220;104.306;2023-12-14T02:53:03;72.43;;;31.90;;
68140;SDS011;54941;52.220;104.306;2023-12-14T02:55:29;76.90;;;29.92;;
68140;SDS011;54941;52.220;104.306;2023-12-14T02:57:57;75.60;;;30.83;;
68140;SDS011;54941;52.220;104.306;2023-12-14T03:00:24;70.55;;;30.30;;
68140;SDS011;54941;52.220;104.306;2023-12-14T03:02:50;72.57;;;28.13;;
68140;SDS011;54941;52.220;104.306;2023-12-14T03:05:17;69.57;;;29.70;;
68140;SDS011;54941;52.220;104.306;2023-12-14T03:07:44;77.03;;;30.23;;
68140;SDS011;54941;52.220;104.306;2023-12-14T03:10:10;75.28;;;32.90;;
68140;SDS011;54941;52.220;104.306;2023-12-14T03:12:36;58.10;;;26.48;;
68140;SDS011;54941;52.220;104.306;2023-12-14T03:15:05;58.05;;;23.02;;
68140;SDS011;54941;52.220;104.306;2023-12-14T03:17:31;60.80;;;23.88;;
68140;SDS011;54941;52.220;104.306;2023-12-14T03:19:58;63.40;;;29.00;;
68140;SDS011;54941;52.220;104.306;2023-12-14T03:22:24;56.22;;;25.95;;
68140;SDS011;54941;52.220;104.306;2023-12-14T03:24:50;63.47;;;24.88;;
68140;SDS011;54941;52.220;104.306;2023-12-14T03:27:17;54.72;;;20.45;;
68140;SDS011;54941;52.220;104.306;2023-12-14T03:29:43;58.53;;;24.83;;
68140;SDS011;54941;52.220;104.306;2023-12-14T03:32:11;62.08;;;29.83;;
68140;SDS011;54941;52.220;104.306;2023-12-14T03:34:37;64.28;;;24.00;;
68140;SDS011;54941;52.220;104.306;2023-12-14T03:37:03;70.95;;;32.03;;
68140;SDS011;54941;52.220;104.306;2023-12-14T03:39:30;68.40;;;28.23;;
68140;SDS011;54941;52.220;104.306;2023-12-14T03:41:56;70.93;;;31.63;;
68140;SDS011;54941;52.220;104.306;2023-12-14T03:44:22;59.13;;;27.60;;
68140;SDS011;54941;52.220;104.306;2023-12-14T03:46:48;61.88;;;27.42;;
68140;SDS011;54941;52.220;104.306;2023-12-14T03:49:16;63.38;;;24.95;;
68140;SDS011;54941;52.220;104.306;2023-12-14T03:51:43;65.60;;;23.83;;
68140;SDS011;54941;52.220;104.306;2023-12-14T03:54:09;79.53;;;31.67;;
68140;SDS011;54941;52.220;104.306;2023-12-14T03:56:35;79.40;;;31.88;;
68140;SDS011;54941;52.220;104.306;2023-12-14T03:59:01;56.80;;;21.88;;
68140;SDS011;54941;52.220;104.306;2023-12-14T04:01:28;58.65;;;28.20;;
68140;SDS011;54941;52.220;104.306;2023-12-14T04:03:54;61.45;;;26.95;;
68140;SDS011;54941;52.220;104.306;2023-12-14T04:06:22;65.72;;;29.05;;
68140;SDS011;54941;52.220;104.306;2023-12-14T04:08:48;62.97;;;28.83;;
68140;SDS011;54941;52.220;104.306;2023-12-14T04:11:14;53.50;;;24.15;;
68140;SDS011;54941;52.220;104.306;2023-12-14T04:13:41;81.72;;;32.42;;
68140;SDS011;54941;52.220;104.306;2023-12-14T04:16:07;67.78;;;27.88;;
68140;SDS011;54941;52.220;104.306;2023-12-14T04:18:34;81.97;;;35.72;;
68140;SDS011;54941;52.220;104.306;2023-12-14T04:21:00;87.43;;;36.33;;
68140;SDS011;54941;52.220;104.306;2023-12-14T04:23:28;50.53;;;24.02;;
68140;SDS011;54941;52.220;104.306;2023-12-14T04:25:54;60.95;;;26.98;;
68140;SDS011;54941;52.220;104.306;2023-12-14T04:28:20;82.25;;;39.83;;
68140;SDS011;54941;52.220;104.306;2023-12-14T04:30:47;92.75;;;40.22;;
68140;SDS011;54941;52.220;104.306;2023-12-14T04:33:13;90.85;;;37.58;;
68140;SDS011;54941;52.220;104.306;2023-12-14T04:35:40;78.20;;;36.22;;
68140;SDS011;54941;52.220;104.306;2023-12-14T04:38:06;71.50;;;32.63;;
68140;SDS011;54941;52.220;104.306;2023-12-14T04:40:34;65.20;;;25.08;;
68140;SDS011;54941;52.220;104.306;2023-12-14T04:43:00;64.78;;;25.60;;
68140;SDS011;54941;52.220;104.306;2023-12-14T04:45:27;70.32;;;29.60;;
68140;SDS011;54941;52.220;104.306;2023-12-14T04:47:53;58.03;;;25.63;;
68140;SDS011;54941;52.220;104.306;2023-12-14T04:50:19;53.97;;;23.83;;
68140;SDS011;54941;52.220;104.306;2023-12-14T04:52:46;55.63;;;22.67;;
68140;SDS011;54941;52.220;104.306;2023-12-14T04:55:12;56.65;;;24.67;;
68140;SDS011;54941;52.220;104.306;2023-12-14T04:57:40;67.72;;;28.98;;
68140;SDS011;54941;52.220;104.306;2023-12-14T05:00:07;67.97;;;26.83;;
68140;SDS011;54941;52.220;104.306;2023-12-14T05:02:34;72.20;;;30.08;;
68140;SDS011;54941;52.220;104.306;2023-12-14T05:05:00;55.50;;;26.60;;
68140;SDS011;54941;52.220;104.306;2023-12-14T05:07:26;62.35;;;25.90;;
68140;SDS011;54941;52.220;104.306;2023-12-14T05:09:53;61.80;;;26.30;;
68140;SDS011;54941;52.220;104.306;2023-12-14T05:12:19;57.80;;;26.88;;
68140;SDS011;54941;52.220;104.306;2023-12-14T05:14:47;66.60;;;26.20;;
68140;SDS011;54941;52.220;104.306;2023-12-14T05:17:13;57.17;;;24.88;;
68140;SDS011;54941;52.220;104.306;2023-12-14T05:19:39;61.00;;;24.88;;
68140;SDS011;54941;52.220;104.306;2023-12-14T05:22:05;67.50;;;26.25;;
68140;SDS011;54941;52.220;104.306;2023-12-14T05:24:32;51.75;;;25.20;;
68140;SDS011;54941;52.220;104.306;2023-12-14T05:26:58;54.38;;;23.38;;
68140;SDS011;54941;52.220;104.306;2023-12-14T05:29:24;53.58;;;22.35;;
68140;SDS011;54941;52.220;104.306;2023-12-14T05:31:52;64.47;;;26.33;;
68140;SDS011;54941;52.220;104.306;2023-12-14T05:34:18;61.72;;;25.85;;
68140;SDS011;54941;52.220;104.306;2023-12-14T05:36:45;35.97;;;15.73;;
68140;SDS011;54941;52.220;104.306;2023-12-14T05:39:11;60.20;;;26.58;;
68140;SDS011;54941;52.220;104.306;2023-12-14T05:41:39;60.15;;;23.15;;
68140;SDS011;54941;52.220;104.306;2023-12-14T05:44:06;64.68;;;26.92;;
68140;SDS011;54941;52.220;104.306;2023-12-14T05:46:32;41.50;;;19.90;;
68140;SDS011;54941;52.220;104.306;2023-12-14T05:49:00;61.97;;;25.38;;
68140;SDS011;54941;52.220;104.306;2023-12-14T05:51:27;51.45;;;22.88;;
68140;SDS011;54941;52.220;104.306;2023-12-14T05:53:54;58.42;;;25.08;;
68140;SDS011;54941;52.220;104.306;2023-12-14T05:56:20;73.03;;;29.58;;
68140;SDS011;54941;52.220;104.306;2023-12-14T05:58:46;56.33;;;22.30;;
68140;SDS011;54941;52.220;104.306;2023-12-14T06:01:13;57.38;;;22.70;;
68140;SDS011;54941;52.220;104.306;2023-12-14T06:03:39;57.40;;;24.48;;
68140;SDS011;54941;52.220;104.306;2023-12-14T06:06:07;52.50;;;21.75;;
68140;SDS011;54941;52.220;104.306;2023-12-14T06:08:33;60.67;;;25.38;;
68140;SDS011;54941;52.220;104.306;2023-12-14T06:11:00;61.10;;;23.90;;
68140;SDS011;54941;52.220;104.306;2023-12-14T06:13:26;56.22;;;24.38;;
68140;SDS011;54941;52.220;104.306;2023-12-14T06:15:52;61.03;;;27.33;;
68140;SDS011;54941;52.220;104.306;2023-12-14T06:18:18;65.93;;;25.50;;
68140;SDS011;54941;52.220;104.306;2023-12-14T06:20:45;65.22;;;26.30;;
68140;SDS011;54941;52.220;104.306;2023-12-14T06:23:13;63.28;;;24.70;;
68140;SDS011;54941;52.220;104.306;2023-12-14T06:25:39;57.35;;;25.08;;
68140;SDS011;54941;52.220;104.306;2023-12-14T06:28:05;46.25;;;19.83;;
68140;SDS011;54941;52.220;104.306;2023-12-14T06:30:31;51.85;;;22.67;;
68140;SDS011;54941;52.220;104.306;2023-12-14T06:32:59;57.13;;;23.08;;
68140;SDS011;54941;52.220;104.306;2023-12-14T06:35:35;57.55;;;26.15;;
68140;SDS011;54941;52.220;104.306;2023-12-14T06:38:07;55.67;;;23.05;;
68140;SDS011;54941;52.220;104.306;2023-12-14T06:40:35;56.13;;;24.98;;
68140;SDS011;54941;52.220;104.306;2023-12-14T06:43:03;58.00;;;23.77;;
68140;SDS011;54941;52.220;104.306;2023-12-14T06:45:30;57.55;;;27.80;;
68140;SDS011;54941;52.220;104.306;2023-12-14T06:47:56;53.45;;;22.92;;
68140;SDS011;54941;52.220;104.306;2023-12-14T06:50:31;52.83;;;23.15;;
68140;SDS011;54941;52.220;104.306;2023-12-14T06:52:57;63.97;;;26.42;;
68140;SDS011;54941;52.220;104.306;2023-12-14T06:55:24;61.05;;;24.70;;
68140;SDS011;54941;52.220;104.306;2023-12-14T06:57:52;56.22;;;24.40;;
68140;SDS011;54941;52.220;104.306;2023-12-14T07:00:18;51.95;;;23.35;;
68140;SDS011;54941;52.220;104.306;2023-12-14T07:02:44;36.03;;;13.95;;
68140;SDS011;54941;52.220;104.306;2023-12-14T07:05:11;44.05;;;19.88;;
68140;SDS011;54941;52.220;104.306;2023-12-14T07:07:37;46.90;;;20.90;;
68140;SDS011;54941;52.220;104.306;2023-12-14T07:10:04;53.40;;;20.25;;
68140;SDS011;54941;52.220;104.306;2023-12-14T07:12:31;50.65;;;21.10;;
68140;SDS011;54941;52.220;104.306;2023-12-14T07:14:58;56.15;;;23.77;;
68140;SDS011;54941;52.220;104.306;2023-12-14T07:17:25;59.42;;;22.35;;
68140;SDS011;54941;52.220;104.306;2023-12-14T07:19:51;59.08;;;25.27;;
68140;SDS011;54941;52.220;104.306;2023-12-14T07:22:17;59.70;;;28.00;;
68140;SDS011;54941;52.220;104.306;2023-12-14T07:24:44;70.57;;;27.08;;
68140;SDS011;54941;52.220;104.306;2023-12-14T07:27:10;55.47;;;21.60;;
68140;SDS011;54941;52.220;104.306;2023-12-14T07:29:36;59.67;;;22.90;;
68140;SDS011;54941;52.220;104.306;2023-12-14T07:32:07;61.95;;;23.63;;
68140;SDS011;54941;52.220;104.306;2023-12-14T07:34:33;69.50;;;28.38;;
68140;SDS011;54941;52.220;104.306;2023-12-14T07:37:00;54.03;;;22.75;;
68140;SDS011;54941;52.220;104.306;2023-12-14T07:39:26;58.75;;;24.17;;
68140;SDS011;54941;52.220;104.306;2023-12-14T07:41:52;58.45;;;22.98;;
68140;SDS011;54941;52.220;104.306;2023-12-14T07:44:19;57.20;;;23.15;;
68140;SDS011;54941;52.220;104.306;2023-12-14T07:46:45;59.67;;;25.92;;
68140;SDS011;54941;52.220;104.306;2023-12-14T07:49:13;62.45;;;29.02;;
68140;SDS011;54941;52.220;104.306;2023-12-14T07:51:39;59.05;;;25.73;;
68140;SDS011;54941;52.220;104.306;2023-12-14T07:54:05;69.97;;;29.08;;
68140;SDS011;54941;52.220;104.306;2023-12-14T07:56:32;77.53;;;32.33;;
68140;SDS011;54941;52.220;104.306;2023-12-14T07:58:58;52.88;;;25.23;;
68140;SDS011;54941;52.220;104.306;2023-12-14T08:01:24;61.13;;;24.73;;
68140;SDS011;54941;52.220;104.306;2023-12-14T08:03:50;56.38;;;23.73;;
68140;SDS011;54941;52.220;104.306;2023-12-14T08:06:18;53.97;;;19.98;;
68140;SDS011;54941;52.220;104.306;2023-12-14T08:08:45;53.83;;;22.75;;
68140;SDS011;54941;52.220;104.306;2023-12-14T08:11:11;51.05;;;24.00;;
68140;SDS011;54941;52.220;104.306;2023-12-14T08:13:37;62.00;;;25.80;;
68140;SDS011;54941;52.220;104.306;2023-12-14T08:16:04;49.10;;;21.73;;
68140;SDS011;54941;52.220;104.306;2023-12-14T08:18:30;51.17;;;20.70;;
68140;SDS011;54941;52.220;104.306;2023-12-14T08:20:57;52.58;;;20.25;;
68140;SDS011;54941;52.220;104.306;2023-12-14T08:23:25;51.85;;;19.05;;
68140;SDS011;54941;52.220;104.306;2023-12-14T08:25:51;50.67;;;21.27;;
68140;SDS011;54941;52.220;104.306;2023-12-14T08:28:17;50.05;;;23.35;;
68140;SDS011;54941;52.220;104.306;2023-12-14T08:30:43;59.25;;;26.33;;
68140;SDS011;54941;52.220;104.306;2023-12-14T08:33:10;51.15;;;22.98;;
68140;SDS011;54941;52.220;104.306;2023-12-14T08:35:36;57.08;;;20.58;;
68140;SDS011;54941;52.220;104.306;2023-12-14T08:38:02;58.97;;;24.35;;
68140;SDS011;54941;52.220;104.306;2023-12-14T08:40:30;55.13;;;26.17;;
68140;SDS011;54941;52.220;104.306;2023-12-14T08:42:57;60.90;;;26.67;;
68140;SDS011;54941;52.220;104.306;2023-12-14T08:45:23;56.55;;;21.48;;
68140;SDS011;54941;52.220;104.306;2023-12-14T08:47:49;62.42;;;23.13;;
68140;SDS011;54941;52.220;104.306;2023-12-14T08:50:16;52.13;;;23.13;;
68140;SDS011;54941;52.220;104.306;2023-12-14T08:52:42;57.92;;;28.70;;
68140;SDS011;54941;52.220;104.306;2023-12-14T08:55:08;57.15;;;25.10;;
68140;SDS011;54941;52.220;104.306;2023-12-14T08:57:36;56.15;;;26.52;;
68140;SDS011;54941;52.220;104.306;2023-12-14T09:00:03;66.35;;;27.65;;
68140;SDS011;54941;52.220;104.306;2023-12-14T09:02:30;65.80;;;27.67;;
68140;SDS011;54941;52.220;104.306;2023-12-14T09:04:56;67.80;;;30.75;;
68140;SDS011;54941;52.220;104.306;2023-12-14T09:07:22;132.65;;;70.43;;
68140;SDS011;54941;52.220;104.306;2023-12-14T09:09:49;78.38;;;36.67;;
68140;SDS011;54941;52.220;104.306;2023-12-14T09:12:15;70.55;;;29.83;;
68140;SDS011;54941;52.220;104.306;2023-12-14T09:14:43;80.25;;;32.47;;
68140;SDS011;54941;52.220;104.306;2023-12-14T09:17:09;68.65;;;29.95;;
68140;SDS011;54941;52.220;104.306;2023-12-14T09:19:35;76.43;;;31.92;;
68140;SDS011;54941;52.220;104.306;2023-12-14T09:22:02;68.25;;;31.77;;
68140;SDS011;54941;52.220;104.306;2023-12-14T09:24:28;76.65;;;34.15;;
68140;SDS011;54941;52.220;104.306;2023-12-14T09:26:54;79.22;;;37.45;;
68140;SDS011;54941;52.220;104.306;2023-12-14T09:29:21;77.07;;;32.20;;
68140;SDS011;54941;52.220;104.306;2023-12-14T09:31:48;79.35;;;35.05;;
68140;SDS011;54941;52.220;104.306;2023-12-14T09:34:15;77.72;;;33.10;;
68140;SDS011;54941;52.220;104.306;2023-12-14T09:36:41;79.43;;;33.60;;
68140;SDS011;54941;52.220;104.306;2023-12-14T09:39:07;91.50;;;38.58;;
68140;SDS011;54941;52.220;104.306;2023-12-14T09:41:34;93.55;;;40.65;;
68140;SDS011;54941;52.220;104.306;2023-12-14T09:44:00;83.78;;;39.53;;
68140;SDS011;54941;52.220;104.306;2023-12-14T09:46:28;79.35;;;32.70;;
68140;SDS011;54941;52.220;104.306;2023-12-14T09:48:57;73.82;;;34.38;;
68140;SDS011;54941;52.220;104.306;2023-12-14T09:53:52;77.82;;;32.97;;
68140;SDS011;54941;52.220;104.306;2023-12-14T09:56:19;84.65;;;36.88;;
68140;SDS011;54941;52.220;104.306;2023-12-14T09:58:45;94.32;;;41.17;;
68140;SDS011;54941;52.220;104.306;2023-12-14T10:01:21;84.85;;;39.42;;
68140;SDS011;54941;52.220;104.306;2023-12-14T10:03:47;96.40;;;37.25;;
68140;SDS011;54941;52.220;104.306;2023-12-14T10:06:17;98.15;;;39.53;;
68140;SDS011;54941;52.220;104.306;2023-12-14T10:08:45;79.38;;;34.35;;
68140;SDS011;54941;52.220;104.306;2023-12-14T10:11:20;83.45;;;37.88;;
68140;SDS011;54941;52.220;104.306;2023-12-14T10:13:46;82.35;;;38.95;;
68140;SDS011;54941;52.220;104.306;2023-12-14T10:16:12;71.35;;;33.08;;
68140;SDS011;54941;52.220;104.306;2023-12-14T10:18:51;66.68;;;26.55;;
68140;SDS011;54941;52.220;104.306;2023-12-14T10:21:19;77.20;;;34.20;;
68140;SDS011;54941;52.220;104.306;2023-12-14T10:23:45;90.65;;;41.38;;
68140;SDS011;54941;52.220;104.306;2023-12-14T10:26:12;75.70;;;32.42;;
68140;SDS011;54941;52.220;104.306;2023-12-14T10:28:39;82.28;;;34.22;;
68140;SDS011;54941;52.220;104.306;2023-12-14T10:31:06;79.93;;;35.45;;
68140;SDS011;54941;52.220;104.306;2023-12-14T10:33:33;87.13;;;36.80;;
68140;SDS011;54941;52.220;104.306;2023-12-14T10:35:59;95.03;;;39.20;;
68140;SDS011;54941;52.220;104.306;2023-12-14T10:38:28;90.72;;;38.70;;
68140;SDS011;54941;52.220;104.306;2023-12-14T10:43:23;69.50;;;28.63;;
68140;SDS011;54941;52.220;104.306;2023-12-14T10:45:52;82.90;;;38.60;;
68140;SDS011;54941;52.220;104.306;2023-12-14T10:48:18;88.68;;;38.13;;
68140;SDS011;54941;52.220;104.306;2023-12-14T10:50:46;84.15;;;35.65;;
68140;SDS011;54941;52.220;104.306;2023-12-14T10:53:14;79.57;;;30.15;;
68140;SDS011;54941;52.220;104.306;2023-12-14T10:55:42;70.30;;;29.35;;
68140;SDS011;54941;52.220;104.306;2023-12-14T10:58:10;67.82;;;30.20;;
68140;SDS011;54941;52.220;104.306;2023-12-14T11:00:37;63.97;;;28.25;;
68140;SDS011;54941;52.220;104.306;2023-12-14T11:03:03;76.03;;;34.75;;
68140;SDS011;54941;52.220;104.306;2023-12-14T11:05:31;70.97;;;29.55;;
68140;SDS011;54941;52.220;104.306;2023-12-14T11:08:00;74.75;;;31.63;;
68140;SDS011;54941;52.220;104.306;2023-12-14T11:10:27;69.03;;;30.05;;
68140;SDS011;54941;52.220;104.306;2023-12-14T11:13:03;87.45;;;36.42;;
68140;SDS011;54941;52.220;104.306;2023-12-14T11:15:33;64.82;;;30.90;;
68140;SDS011;54941;52.220;104.306;2023-12-14T11:20:56;74.30;;;31.38;;
68140;SDS011;54941;52.220;104.306;2023-12-14T11:23:27;78.05;;;33.08;;
68140;SDS011;54941;52.220;104.306;2023-12-14T11:25:58;77.47;;;34.65;;
68140;SDS011;54941;52.220;104.306;2023-12-14T11:28:27;74.40;;;32.95;;
68140;SDS011;54941;52.220;104.306;2023-12-14T11:30:54;68.72;;;29.67;;
68140;SDS011;54941;52.220;104.306;2023-12-14T11:33:20;72.45;;;31.02;;
68140;SDS011;54941;52.220;104.306;2023-12-14T11:35:47;80.00;;;30.52;;
68140;SDS011;54941;52.220;104.306;2023-12-14T11:38:14;82.72;;;31.90;;
68140;SDS011;54941;52.220;104.306;2023-12-14T11:40:40;81.05;;;30.20;;
68140;SDS011;54941;52.220;104.306;2023-12-14T11:43:07;79.03;;;30.83;;
68140;SDS011;54941;52.220;104.306;2023-12-14T11:45:35;77.85;;;30.00;;
68140;SDS011;54941;52.220;104.306;2023-12-14T11:48:02;81.47;;;36.30;;
68140;SDS011;54941;52.220;104.306;2023-12-14T11:50:29;84.80;;;35.55;;
68140;SDS011;54941;52.220;104.306;2023-12-14T11:52:55;67.65;;;29.05;;
68140;SDS011;54941;52.220;104.306;2023-12-14T11:55:22;62.08;;;28.92;;
68140;SDS011;54941;52.220;104.306;2023-12-14T11:57:48;62.50;;;28.08;;
68140;SDS011;54941;52.220;104.306;2023-12-14T12:00:15;69.57;;;30.30;;
68140;SDS011;54941;52.220;104.306;2023-12-14T12:02:44;63.45;;;29.60;;
68140;SDS011;54941;52.220;104.306;2023-12-14T12:05:11;73.80;;;28.20;;
68140;SDS011;54941;52.220;104.306;2023-12-14T12:07:37;71.28;;;32.25;;
68140;SDS011;54941;52.220;104.306;2023-12-14T12:10:04;63.00;;;26.58;;
68140;SDS011;54941;52.220;104.306;2023-12-14T12:12:32;59.95;;;26.42;;
68140;SDS011;54941;52.220;104.306;2023-12-14T12:14:59;59.90;;;23.40;;
68140;SDS011;54941;52.220;104.306;2023-12-14T12:17:25;57.28;;;22.80;;
68140;SDS011;54941;52.220;104.306;2023-12-14T12:19:53;58.72;;;23.92;;
68140;SDS011;54941;52.220;104.306;2023-12-14T12:22:19;69.82;;;31.48;;
68140;SDS011;54941;52.220;104.306;2023-12-14T12:24:46;61.88;;;26.55;;
68140;SDS011;54941;52.220;104.306;2023-12-14T12:27:12;67.30;;;29.05;;
68140;SDS011;54941;52.220;104.306;2023-12-14T12:29:38;56.22;;;26.42;;
68140;SDS011;54941;52.220;104.306;2023-12-14T12:32:05;75.68;;;28.77;;
68140;SDS011;54941;52.220;104.306;2023-12-14T12:34:31;68.25;;;27.60;;
68140;SDS011;54941;52.220;104.306;2023-12-14T12:36:59;72.55;;;30.92;;
68140;SDS011;54941;52.220;104.306;2023-12-14T12:39:25;68.10;;;31.73;;
68140;SDS011;54941;52.220;104.306;2023-12-14T12:41:51;74.90;;;34.38;;
68140;SDS011;54941;52.220;104.306;2023-12-14T12:44:17;71.22;;;33.70;;
68140;SDS011;54941;52.220;104.306;2023-12-14T12:46:44;71.25;;;28.52;;
68140;SDS011;54941;52.220;104.306;2023-12-14T12:49:10;79.60;;;32.47;;
68140;SDS011;54941;52.220;104.306;2023-12-14T12:51:36;82.82;;;33.95;;
68140;SDS011;54941;52.220;104.306;2023-12-14T12:54:04;69.97;;;28.05;;
68140;SDS011;54941;52.220;104.306;2023-12-14T12:56:30;66.30;;;27.98;;
68140;SDS011;54941;52.220;104.306;2023-12-14T12:58:57;63.13;;;25.67;;
68140;SDS011;54941;52.220;104.306;2023-12-14T13:01:23;64.55;;;25.55;;
68140;SDS011;54941;52.220;104.306;2023-12-14T13:03:52;65.13;;;29.92;;
68140;SDS011;54941;52.220;104.306;2023-12-14T13:06:19;61.83;;;25.17;;
68140;SDS011;54941;52.220;104.306;2023-12-14T13:08:46;56.22;;;28.67;;
68140;SDS011;54941;52.220;104.306;2023-12-14T13:11:14;57.45;;;23.55;;
68140;SDS011;54941;52.220;104.306;2023-12-14T13:13:40;65.72;;;26.75;;
68140;SDS011;54941;52.220;104.306;2023-12-14T13:16:07;63.92;;;27.48;;
68140;SDS011;54941;52.220;104.306;2023-12-14T13:18:33;64.32;;;29.70;;
68140;SDS011;54941;52.220;104.306;2023-12-14T13:20:59;65.10;;;30.70;;
68140;SDS011;54941;52.220;104.306;2023-12-14T13:23:26;59.25;;;27.30;;
68140;SDS011;54941;52.220;104.306;2023-12-14T13:25:52;59.20;;;28.92;;
68140;SDS011;54941;52.220;104.306;2023-12-14T13:28:20;58.47;;;28.80;;
68140;SDS011;54941;52.220;104.306;2023-12-14T13:30:46;68.93;;;31.52;;
68140;SDS011;54941;52.220;104.306;2023-12-14T13:33:13;68.45;;;31.23;;
68140;SDS011;54941;52.220;104.306;2023-12-14T13:35:39;72.25;;;27.15;;
68140;SDS011;54941;52.220;104.306;2023-12-14T13:38:05;58.40;;;28.50;;
68140;SDS011;54941;52.220;104.306;2023-12-14T13:40:32;76.95;;;36.58;;
68140;SDS011;54941;52.220;104.306;2023-12-14T13:42:58;71.03;;;28.30;;
68140;SDS011;54941;52.220;104.306;2023-12-14T13:45:26;63.30;;;29.50;;
68140;SDS011;54941;52.220;104.306;2023-12-14T13:47:52;78.95;;;37.60;;
68140;SDS011;54941;52.220;104.306;2023-12-14T13:50:18;78.97;;;31.35;;
68140;SDS011;54941;52.220;104.306;2023-12-14T13:52:45;78.78;;;37.30;;
68140;SDS011;54941;52.220;104.306;2023-12-14T13:55:11;93.78;;;38.70;;
68140;SDS011;54941;52.220;104.306;2023-12-14T13:57:37;96.72;;;38.78;;
68140;SDS011;54941;52.220;104.306;2023-12-14T14:00:04;114.60;;;50.22;;
68140;SDS011;54941;52.220;104.306;2023-12-14T14:02:33;94.88;;;41.53;;